createdAt,value
2022-09-03T00:01:57.943Z,26.85
2022-09-03T00:04:53.141Z,26.85
2022-09-03T00:07:47.259Z,26.87
2022-09-03T00:10:45.031Z,26.89
2022-09-03T00:13:38.080Z,26.87
2022-09-03T00:16:31.320Z,26.91
2022-09-03T00:19:21.782Z,26.90
2022-09-03T00:22:12.198Z,26.88
2022-09-03T00:25:01.502Z,26.87
2022-09-03T00:27:55.145Z,26.88
2022-09-03T00:30:44.323Z,26.89
2022-09-03T00:33:35.421Z,26.87
2022-09-03T00:36:30.248Z,26.90
2022-09-03T00:39:21.707Z,26.87
2022-09-03T00:42:23.631Z,26.83
2022-09-03T00:45:20.325Z,26.85
2022-09-03T00:48:18.527Z,26.84
2022-09-03T00:51:16.986Z,26.81
2022-09-03T00:54:09.807Z,26.83
2022-09-03T00:57:10.525Z,26.85
2022-09-03T01:00:06.071Z,26.82
2022-09-03T01:03:07.886Z,26.83
2022-09-03T01:06:11.116Z,26.81
2022-09-03T01:09:12.167Z,26.82
2022-09-03T01:12:03.195Z,26.81
2022-09-03T01:15:00.162Z,26.82
2022-09-03T01:17:59.241Z,26.82
2022-09-03T01:20:56.024Z,26.85
2022-09-03T01:23:58.324Z,26.81
2022-09-03T01:27:01.374Z,26.82
2022-09-03T01:29:55.559Z,26.81
2022-09-03T01:32:48.606Z,26.82
2022-09-03T01:35:41.441Z,26.83
2022-09-03T01:38:36.484Z,26.83
2022-09-03T01:41:59.031Z,26.83
2022-09-03T01:45:36.116Z,26.85
2022-09-03T01:48:44.265Z,26.82
2022-09-03T01:51:33.847Z,26.85
2022-09-03T01:54:33.003Z,26.85
2022-09-03T01:57:37.540Z,26.85
2022-09-03T02:00:26.918Z,26.83
2022-09-03T02:03:16.028Z,26.84
2022-09-03T02:06:07.737Z,26.83
2022-09-03T02:08:56.224Z,26.82
2022-09-03T02:11:46.931Z,26.81
2022-09-03T02:14:36.171Z,26.83
2022-09-03T02:17:24.767Z,26.83
2022-09-03T02:20:20.035Z,26.83
2022-09-03T02:23:09.971Z,26.82
2022-09-03T02:25:59.810Z,26.87
2022-09-03T02:28:48.428Z,26.86
2022-09-03T02:31:37.063Z,26.89
2022-09-03T02:34:25.610Z,26.87
2022-09-03T02:37:15.365Z,26.89
2022-09-03T02:40:09.191Z,26.91
2022-09-03T02:42:57.849Z,26.91
2022-09-03T02:45:49.342Z,26.92
2022-09-03T02:48:38.010Z,26.94
2022-09-03T02:51:26.666Z,26.92
2022-09-03T02:54:20.229Z,26.90
2022-09-03T02:57:12.279Z,26.89
2022-09-03T03:00:00.763Z,26.89
2022-09-03T03:02:50.025Z,26.88
2022-09-03T03:05:44.958Z,26.88
2022-09-03T03:08:35.101Z,26.86
2022-09-03T03:11:24.066Z,26.87
2022-09-03T03:14:14.319Z,26.85
2022-09-03T03:17:02.957Z,26.88
2022-09-03T03:19:51.714Z,26.89
2022-09-03T03:22:40.185Z,26.87
2022-09-03T03:25:28.723Z,26.86
2022-09-03T03:28:19.029Z,26.87
2022-09-03T03:31:09.647Z,26.86
2022-09-03T03:34:00.008Z,26.86
2022-09-03T03:36:48.506Z,26.88
2022-09-03T03:39:37.232Z,26.82
2022-09-03T03:42:26.030Z,26.86
2022-09-03T03:45:14.536Z,26.87
2022-09-03T03:48:04.889Z,26.83
2022-09-03T03:50:55.960Z,26.85
2022-09-03T03:53:44.448Z,26.83
2022-09-03T03:56:33.043Z,26.82
2022-09-03T03:59:21.610Z,26.80
2022-09-03T04:02:10.189Z,26.80
2022-09-03T04:05:00.319Z,26.81
2022-09-03T04:07:48.785Z,26.80
2022-09-03T04:10:37.873Z,26.79
2022-09-03T04:13:27.137Z,26.81
2022-09-03T04:16:18.184Z,26.87
2022-09-03T04:19:07.178Z,26.85
2022-09-03T04:21:57.113Z,26.82
2022-09-03T04:24:46.319Z,26.82
2022-09-03T04:27:34.853Z,26.81
2022-09-03T04:30:23.447Z,26.81
2022-09-03T04:33:16.383Z,26.83
2022-09-03T04:36:09.786Z,26.79
2022-09-03T04:39:01.690Z,26.79
2022-09-03T04:41:52.704Z,26.78
2022-09-03T04:44:41.377Z,26.77
2022-09-03T04:47:29.905Z,26.76
2022-09-03T04:50:18.805Z,26.77
2022-09-03T04:53:07.922Z,26.76
2022-09-03T04:55:58.224Z,26.76
2022-09-03T04:58:47.044Z,26.74
2022-09-03T05:01:43.461Z,26.74
2022-09-03T05:04:31.905Z,26.77
2022-09-03T05:07:21.021Z,26.77
2022-09-03T05:10:13.059Z,26.73
2022-09-03T05:13:03.911Z,26.74
2022-09-03T05:15:52.396Z,26.70
2022-09-03T05:18:42.431Z,26.71
2022-09-03T05:21:31.184Z,26.72
2022-09-03T05:24:20.084Z,26.70
2022-09-03T05:27:08.568Z,26.69
2022-09-03T05:29:58.446Z,26.68
2022-09-03T05:32:46.925Z,26.68
2022-09-03T05:35:35.422Z,26.71
2022-09-03T05:38:23.995Z,26.75
2022-09-03T05:41:14.608Z,26.72
2022-09-03T05:44:04.066Z,26.69
2022-09-03T05:46:53.981Z,26.68
2022-09-03T05:49:42.491Z,26.67
2022-09-03T05:52:30.966Z,26.68
2022-09-03T05:55:19.642Z,26.69
2022-09-03T05:58:08.371Z,26.71
2022-09-03T06:00:56.943Z,26.70
2022-09-03T06:03:47.911Z,26.74
2022-09-03T06:06:38.889Z,26.71
2022-09-03T06:09:27.487Z,26.78
2022-09-03T06:12:16.010Z,26.74
2022-09-03T06:15:05.773Z,26.75
2022-09-03T06:17:54.444Z,26.76
2022-09-03T06:20:44.336Z,26.78
2022-09-03T06:23:34.017Z,26.82
2022-09-03T06:26:25.315Z,26.86
2022-09-03T06:29:14.073Z,26.88
2022-09-03T06:32:05.049Z,26.93
2022-09-03T06:34:53.582Z,26.95
2022-09-03T06:37:44.197Z,26.94
2022-09-03T06:40:33.176Z,26.98
2022-09-03T06:43:21.789Z,26.98
2022-09-03T06:46:12.296Z,26.99
2022-09-03T06:49:01.245Z,27.00
2022-09-03T06:51:49.800Z,27.00
2022-09-03T06:54:39.639Z,27.00
2022-09-03T06:57:28.181Z,27.02
2022-09-03T07:00:17.746Z,27.05
2022-09-03T07:03:07.224Z,27.05
2022-09-03T07:05:55.764Z,27.08
2022-09-03T07:08:46.257Z,27.08
2022-09-03T07:11:36.711Z,27.08
2022-09-03T07:14:25.611Z,27.10
2022-09-03T07:17:16.569Z,27.09
2022-09-03T07:20:05.605Z,27.11
2022-09-03T07:22:57.532Z,27.13
2022-09-03T07:25:46.128Z,27.13
2022-09-03T07:28:39.947Z,27.17
2022-09-03T07:31:36.145Z,27.20
2022-09-03T07:34:26.567Z,27.22
2022-09-03T07:37:15.868Z,27.20
2022-09-03T07:40:05.145Z,27.26
2022-09-03T07:43:04.512Z,27.27
2022-09-03T07:45:55.635Z,27.25
2022-09-03T07:48:45.317Z,27.29
2022-09-03T07:51:35.831Z,27.30
2022-09-03T07:54:27.384Z,27.25
2022-09-03T07:57:16.003Z,27.25
2022-09-03T08:00:05.800Z,27.28
2022-09-03T08:02:56.182Z,27.26
2022-09-03T08:05:44.788Z,27.31
2022-09-03T08:08:35.661Z,27.34
2022-09-03T08:11:25.102Z,27.27
2022-09-03T08:14:15.449Z,27.27
2022-09-03T08:17:03.980Z,27.25
2022-09-03T08:19:54.008Z,27.26
2022-09-03T08:22:43.908Z,27.25
2022-09-03T08:25:33.932Z,27.26
2022-09-03T08:28:23.407Z,27.27
2022-09-03T08:31:14.101Z,27.26
2022-09-03T08:34:06.680Z,27.31
2022-09-03T08:36:56.857Z,27.29
2022-09-03T08:39:45.426Z,27.27
2022-09-03T08:42:44.379Z,27.26
2022-09-03T08:45:33.719Z,27.26
2022-09-03T08:48:25.900Z,27.28
2022-09-03T08:51:17.194Z,27.29
2022-09-03T08:54:08.714Z,27.28
2022-09-03T08:56:57.733Z,27.30
2022-09-03T08:59:46.428Z,27.28
2022-09-03T09:02:41.614Z,27.30
2022-09-03T09:05:40.207Z,27.33
2022-09-03T09:08:35.138Z,27.35
2022-09-03T09:11:33.525Z,27.39
2022-09-03T09:14:30.586Z,27.41
2022-09-03T09:17:42.974Z,27.36
2022-09-03T09:20:37.973Z,27.36
2022-09-03T09:23:29.508Z,27.37
2022-09-03T09:26:19.632Z,27.39
2022-09-03T09:29:13.817Z,27.43
2022-09-03T09:32:02.611Z,27.44
2022-09-03T09:34:54.595Z,27.43
2022-09-03T09:37:51.643Z,27.43
2022-09-03T09:40:44.965Z,27.45
2022-09-03T09:43:36.096Z,27.47
2022-09-03T09:46:29.724Z,27.50
2022-09-03T09:49:32.024Z,27.47
2022-09-03T09:52:22.244Z,27.49
2022-09-03T09:55:12.848Z,27.46
2022-09-03T09:58:14.036Z,27.48
2022-09-03T10:01:13.080Z,27.50
2022-09-03T10:04:10.978Z,27.54
2022-09-03T10:07:03.590Z,27.51
2022-09-03T10:10:08.887Z,27.48
2022-09-03T10:13:01.735Z,27.50
2022-09-03T10:15:53.065Z,27.52
2022-09-03T10:18:45.131Z,27.50
2022-09-03T10:21:42.896Z,27.51
2022-09-03T10:24:40.992Z,27.54
2022-09-03T10:27:30.100Z,27.58
2022-09-03T10:30:20.906Z,27.61
2022-09-03T10:33:13.370Z,27.60
2022-09-03T10:36:13.754Z,27.62
2022-09-03T10:39:07.648Z,27.60
2022-09-03T10:42:07.437Z,27.60
2022-09-03T10:45:03.723Z,27.65
2022-09-03T10:48:06.552Z,27.61
2022-09-03T10:50:57.049Z,27.59
2022-09-03T10:54:01.411Z,27.61
2022-09-03T10:56:56.677Z,27.67
2022-09-03T10:59:57.179Z,27.68
2022-09-03T11:03:06.226Z,27.68
2022-09-03T11:06:00.920Z,27.64
2022-09-03T11:08:55.666Z,27.65
2022-09-03T11:11:47.398Z,27.71
2022-09-03T11:14:40.332Z,27.74
2022-09-03T11:17:33.425Z,27.75
2022-09-03T11:20:23.754Z,27.78
2022-09-03T11:23:14.868Z,27.82
2022-09-03T11:26:06.849Z,27.78
2022-09-03T11:28:59.547Z,27.81
2022-09-03T11:31:57.898Z,27.81
2022-09-03T11:34:48.821Z,27.81
2022-09-03T11:37:49.101Z,27.80
2022-09-03T11:40:40.015Z,27.80
2022-09-03T11:43:30.197Z,27.77
2022-09-03T11:46:30.569Z,27.79
2022-09-03T11:49:30.273Z,27.82
2022-09-03T11:52:28.374Z,27.88
2022-09-03T11:55:31.834Z,27.86
2022-09-03T11:58:28.573Z,27.90
2022-09-03T12:01:19.238Z,27.88
2022-09-03T12:04:09.751Z,27.91
2022-09-03T12:07:17.622Z,27.89
2022-09-03T12:10:20.323Z,27.99
2022-09-03T12:13:20.300Z,27.98
2022-09-03T12:16:25.630Z,27.97
2022-09-03T12:19:22.137Z,27.92
2022-09-03T12:22:16.605Z,27.92
2022-09-03T12:25:11.444Z,27.93
2022-09-03T12:28:03.943Z,27.95
2022-09-03T12:30:53.662Z,27.93
2022-09-03T12:33:43.062Z,27.95
2022-09-03T12:36:38.798Z,27.92
2022-09-03T12:42:40.066Z,28.02
2022-09-03T12:46:09.889Z,27.97
2022-09-03T12:48:39.721Z,28.00
2022-09-03T12:51:55.254Z,27.99
2022-09-03T12:54:51.897Z,27.96
2022-09-03T12:57:43.669Z,28.02
2022-09-03T13:00:34.081Z,28.04
2022-09-03T13:03:26.581Z,28.05
2022-09-03T13:06:16.534Z,28.01
2022-09-03T13:09:07.476Z,28.06
2022-09-03T13:11:59.188Z,28.03
2022-09-03T13:14:52.490Z,28.01
2022-09-03T13:18:06.334Z,28.00
2022-09-03T13:21:08.022Z,28.09
2022-09-03T13:24:07.344Z,28.07
2022-09-03T13:27:08.375Z,28.03
2022-09-03T13:30:09.145Z,28.09
2022-09-03T13:33:01.967Z,28.06
2022-09-03T13:35:53.797Z,28.10
2022-09-03T13:38:45.594Z,28.17
2022-09-03T13:41:37.634Z,28.21
2022-09-03T13:44:40.724Z,28.17
2022-09-03T13:47:33.115Z,28.17
2022-09-03T13:50:22.549Z,28.18
2022-09-03T13:53:16.761Z,28.21
2022-09-03T13:56:15.716Z,28.25
2022-09-03T13:59:09.760Z,28.26
2022-09-03T14:02:12.896Z,28.29
2022-09-03T14:05:07.601Z,28.37
2022-09-03T14:08:08.635Z,28.39
2022-09-03T14:11:02.808Z,28.37
2022-09-03T14:14:18.623Z,28.39
2022-09-03T14:17:14.293Z,28.51
2022-09-03T14:20:06.806Z,28.44
2022-09-03T14:22:58.567Z,28.42
2022-09-03T14:25:54.505Z,28.38
2022-09-03T14:28:51.241Z,28.32
2022-09-03T14:31:53.365Z,28.30
2022-09-03T14:34:53.935Z,28.34
2022-09-03T14:38:26.930Z,28.35
2022-09-03T14:41:38.612Z,28.39
2022-09-03T14:44:45.735Z,28.41
2022-09-03T14:47:44.670Z,28.33
2022-09-03T14:50:45.739Z,28.32
2022-09-03T14:54:01.460Z,28.25
2022-09-03T14:56:54.353Z,28.23
2022-09-03T15:00:07.998Z,28.15
2022-09-03T15:03:32.169Z,28.15
2022-09-03T15:06:31.641Z,28.16
2022-09-03T15:09:27.683Z,28.16
2022-09-03T15:12:21.195Z,28.22
2022-09-03T15:15:15.448Z,28.33
2022-09-03T15:18:13.426Z,28.24
2022-09-03T15:21:06.655Z,28.22
2022-09-03T15:24:06.827Z,28.22
2022-09-03T15:27:01.418Z,28.16
2022-09-03T15:29:59.673Z,28.14
2022-09-03T15:32:53.635Z,28.11
2022-09-03T15:35:53.462Z,28.23
2022-09-03T15:38:47.019Z,28.16
2022-09-03T15:41:42.255Z,28.15
2022-09-03T15:44:38.207Z,28.08
2022-09-03T15:47:50.788Z,28.16
2022-09-03T15:50:52.751Z,28.09
2022-09-03T15:53:50.964Z,28.05
2022-09-03T15:56:47.271Z,28.09
2022-09-03T15:59:41.083Z,28.07
2022-09-03T16:02:34.455Z,28.08
2022-09-03T16:05:29.012Z,28.07
2022-09-03T16:08:21.758Z,28.08
2022-09-03T16:11:14.647Z,28.02
2022-09-03T16:14:10.372Z,28.03
2022-09-03T16:17:03.458Z,28.02
2022-09-03T16:19:56.646Z,28.01
2022-09-03T16:22:48.903Z,28.05
2022-09-03T16:25:48.012Z,28.07
2022-09-03T16:28:39.233Z,28.10
2022-09-03T16:31:51.267Z,28.14
2022-09-03T16:34:50.328Z,28.14
2022-09-03T16:37:47.584Z,28.18
2022-09-03T16:40:42.326Z,28.14
2022-09-03T16:43:41.525Z,28.07
2022-09-03T16:46:37.812Z,28.06
2022-09-03T16:49:38.544Z,28.06
2022-09-03T16:52:38.610Z,28.06
2022-09-03T16:55:36.721Z,28.01
2022-09-03T16:58:33.295Z,27.97
2022-09-03T17:01:46.291Z,27.98
2022-09-03T17:04:51.810Z,27.91
2022-09-03T17:08:09.254Z,27.87
2022-09-03T17:11:06.835Z,27.87
2022-09-03T17:14:07.389Z,27.89
2022-09-03T17:17:06.424Z,27.87
2022-09-03T17:19:59.479Z,27.86
2022-09-03T17:23:00.559Z,27.83
2022-09-03T17:25:53.755Z,27.82
2022-09-03T17:28:51.101Z,27.81
2022-09-03T17:31:51.361Z,27.81
2022-09-03T17:34:48.725Z,27.81
2022-09-03T17:37:50.276Z,27.81
2022-09-03T17:40:44.362Z,27.78
2022-09-03T17:43:37.215Z,27.77
2022-09-03T17:46:31.938Z,27.75
2022-09-03T17:49:23.329Z,27.73
2022-09-03T17:52:23.654Z,27.70
2022-09-03T17:55:15.580Z,27.67
2022-09-03T17:58:11.513Z,27.63
2022-09-03T18:01:07.750Z,27.62
2022-09-03T18:03:58.925Z,27.62
2022-09-03T18:06:57.333Z,27.60
2022-09-03T18:09:53.785Z,27.60
2022-09-03T18:12:59.813Z,27.58
2022-09-03T18:15:57.387Z,27.56
2022-09-03T18:18:47.891Z,27.57
2022-09-03T18:21:56.428Z,27.54
2022-09-03T18:25:05.363Z,27.52
2022-09-03T18:28:16.650Z,27.53
2022-09-03T18:31:24.371Z,27.47
2022-09-03T18:34:30.621Z,27.46
2022-09-03T18:37:40.879Z,27.44
2022-09-03T18:40:52.813Z,27.42
2022-09-03T18:44:08.615Z,27.42
2022-09-03T18:48:01.523Z,27.38
2022-09-03T18:50:49.371Z,27.39
2022-09-03T18:54:02.451Z,27.34
2022-09-03T18:57:14.682Z,27.33
2022-09-03T19:00:29.204Z,27.33
2022-09-03T19:03:54.427Z,27.34
2022-09-03T19:07:07.930Z,27.33
2022-09-03T19:10:20.552Z,27.33
2022-09-03T19:13:38.141Z,27.34
2022-09-03T19:16:54.428Z,27.35
2022-09-03T19:20:09.661Z,27.35
2022-09-03T19:23:15.995Z,27.38
2022-09-03T19:26:27.808Z,27.36
2022-09-03T19:29:49.114Z,27.38
2022-09-03T19:33:04.705Z,27.37
2022-09-03T19:36:19.663Z,27.35
2022-09-03T19:39:39.333Z,27.35
2022-09-03T19:43:03.923Z,27.32
2022-09-03T19:46:15.845Z,27.35
2022-09-03T19:49:28.858Z,27.32
2022-09-03T19:52:46.290Z,27.30
2022-09-03T19:55:55.144Z,27.28
2022-09-03T19:59:04.085Z,27.28
2022-09-03T20:02:10.831Z,27.28
2022-09-03T20:05:20.211Z,27.29
2022-09-03T20:08:26.900Z,27.28
2022-09-03T20:11:20.091Z,27.28
2022-09-03T20:14:16.691Z,27.26
2022-09-03T20:17:15.486Z,27.25
2022-09-03T20:20:17.965Z,27.23
2022-09-03T20:23:14.698Z,27.23
2022-09-03T20:26:25.081Z,27.22
2022-09-03T20:29:33.384Z,27.21
2022-09-03T20:32:34.392Z,27.24
2022-09-03T20:35:32.980Z,27.26
2022-09-03T20:38:30.915Z,27.26
2022-09-03T20:41:25.161Z,27.25
2022-09-03T20:44:35.918Z,27.22
2022-09-03T20:47:39.166Z,27.23
2022-09-03T20:50:43.690Z,27.22
2022-09-03T20:53:43.865Z,27.19
2022-09-03T20:56:35.210Z,27.20
2022-09-03T20:59:30.867Z,27.17
2022-09-03T21:02:26.194Z,27.20
2022-09-03T21:05:19.087Z,27.19
2022-09-03T21:08:18.165Z,27.16
2022-09-03T21:11:14.424Z,27.18
2022-09-03T21:14:14.697Z,27.18
2022-09-03T21:17:30.978Z,27.21
2022-09-03T21:20:26.959Z,27.17
2022-09-03T21:23:21.953Z,27.17
2022-09-03T21:26:16.719Z,27.17
2022-09-03T21:29:09.495Z,27.20
2022-09-03T21:32:03.124Z,27.20
2022-09-03T21:34:57.729Z,27.20
2022-09-03T21:37:52.575Z,27.22
2022-09-03T21:40:46.803Z,27.20
2022-09-03T21:43:39.009Z,27.23
2022-09-03T21:46:31.067Z,27.21
2022-09-03T21:49:24.023Z,27.20
2022-09-03T21:52:15.731Z,27.21
2022-09-03T21:55:05.510Z,27.21
2022-09-03T21:58:05.661Z,27.21
2022-09-03T22:00:57.418Z,27.20
2022-09-03T22:03:45.916Z,27.20
2022-09-03T22:06:40.449Z,27.21
2022-09-03T22:09:34.992Z,27.24
2022-09-03T22:12:28.444Z,27.24
2022-09-03T22:15:20.080Z,27.25
2022-09-03T22:18:17.466Z,27.23
2022-09-03T22:21:13.722Z,27.27
2022-09-03T22:24:10.307Z,27.26
2022-09-03T22:27:03.314Z,27.26
2022-09-03T22:29:58.022Z,27.27
2022-09-03T22:32:55.012Z,27.26
2022-09-03T22:35:53.615Z,27.26
2022-09-03T22:39:11.743Z,27.26
2022-09-03T22:42:10.402Z,27.23
2022-09-03T22:45:14.615Z,27.24
2022-09-03T22:48:23.483Z,27.25
2022-09-03T22:51:12.693Z,27.24
2022-09-03T22:54:12.541Z,27.24
2022-09-03T22:57:02.957Z,27.21
2022-09-03T22:59:57.422Z,27.22
2022-09-03T23:02:47.556Z,27.23
2022-09-03T23:05:41.829Z,27.20
2022-09-03T23:08:34.022Z,27.20
2022-09-03T23:11:25.309Z,27.22
2022-09-03T23:14:16.591Z,27.24
2022-09-03T23:17:08.248Z,27.20
2022-09-03T23:22:59.471Z,27.21
2022-09-03T23:25:51.688Z,27.23
2022-09-03T23:28:43.893Z,27.22
2022-09-03T23:31:32.581Z,27.20
2022-09-03T23:34:21.491Z,27.19
2022-09-03T23:37:34.486Z,27.19
2022-09-03T23:40:35.679Z,27.21
2022-09-03T23:44:03.123Z,27.20
2022-09-03T23:46:59.132Z,27.22
2022-09-03T23:49:57.940Z,27.20
2022-09-03T23:53:13.643Z,27.17
2022-09-03T23:56:12.683Z,27.18
2022-09-03T23:59:08.090Z,27.19
